sensor_id;sensor_type;location;lat;lon;timestamp;pressure;altitude;pressure_sealevel;temperature
64600;BMP280;6553;48.412;9.514;2022-11-14T00:00:27;71483.34;;;18.19
64600;BMP280;6553;48.412;9.514;2022-11-14T00:03:12;71486.53;;;18.22
64600;BMP280;6553;48.412;9.514;2022-11-14T00:05:56;71491.22;;;18.16
64600;BMP280;6553;48.412;9.514;2022-11-14T00:08:40;71486.66;;;18.20
64600;BMP280;6553;48.412;9.514;2022-11-14T00:11:24;71483.34;;;18.19
64600;BMP280;6553;48.412;9.514;2022-11-14T00:14:10;71484.53;;;18.18
64600;BMP280;6553;48.412;9.514;2022-11-14T00:16:55;71484.94;;;18.21
64600;BMP280;6553;48.412;9.514;2022-11-14T00:19:39;71484.41;;;18.20
64600;BMP280;6553;48.412;9.514;2022-11-14T00:22:24;71484.94;;;18.21
64600;BMP280;6553;48.412;9.514;2022-11-14T00:25:08;71484.00;;;18.17
64600;BMP280;6553;48.412;9.514;2022-11-14T00:27:56;71487.81;;;18.18
64600;BMP280;6553;48.412;9.514;2022-11-14T00:30:45;71481.22;;;18.17
64600;BMP280;6553;48.412;9.514;2022-11-14T00:33:30;71483.34;;;18.19
64600;BMP280;6553;48.412;9.514;2022-11-14T00:36:14;71489.94;;;18.20
64600;BMP280;6553;48.412;9.514;2022-11-14T00:38:59;71484.53;;;18.18
64600;BMP280;6553;48.412;9.514;2022-11-14T00:41:43;71480.16;;;18.16
64600;BMP280;6553;48.412;9.514;2022-11-14T00:44:27;71490.59;;;18.18
64600;BMP280;6553;48.412;9.514;2022-11-14T00:47:11;71486.09;;;18.19
64600;BMP280;6553;48.412;9.514;2022-11-14T00:49:56;71487.16;;;18.20
64600;BMP280;6553;48.412;9.514;2022-11-14T00:52:40;71483.44;;;18.17
64600;BMP280;6553;48.412;9.514;2022-11-14T00:55:24;71486.09;;;18.19
64600;BMP280;6553;48.412;9.514;2022-11-14T00:58:09;71482.81;;;18.19
64600;BMP280;6553;48.412;9.514;2022-11-14T01:00:53;71485.06;;;18.18
64600;BMP280;6553;48.412;9.514;2022-11-14T01:03:38;71480.69;;;18.17
64600;BMP280;6553;48.412;9.514;2022-11-14T01:06:22;71486.66;;;18.20
64600;BMP280;6553;48.412;9.514;2022-11-14T01:09:07;71489.41;;;18.20
64600;BMP280;6553;48.412;9.514;2022-11-14T01:11:51;71490.59;;;18.18
64600;BMP280;6553;48.412;9.514;2022-11-14T01:14:35;71487.28;;;18.18
64600;BMP280;6553;48.412;9.514;2022-11-14T01:17:19;71479.09;;;18.15
64600;BMP280;6553;48.412;9.514;2022-11-14T01:20:05;71485.06;;;18.18
64600;BMP280;6553;48.412;9.514;2022-11-14T01:22:49;71488.34;;;18.19
64600;BMP280;6553;48.412;9.514;2022-11-14T01:25:35;71485.56;;;18.19
64600;BMP280;6553;48.412;9.514;2022-11-14T01:28:19;71485.69;;;18.16
64600;BMP280;6553;48.412;9.514;2022-11-14T01:31:24;71484.00;;;18.17
64600;BMP280;6553;48.412;9.514;2022-11-14T01:34:09;71482.81;;;18.19
64600;BMP280;6553;48.412;9.514;2022-11-14T01:36:53;71486.22;;;18.17
64600;BMP280;6553;48.412;9.514;2022-11-14T01:39:37;71481.75;;;18.18
64600;BMP280;6553;48.412;9.514;2022-11-14T01:42:21;71482.94;;;18.16
64600;BMP280;6553;48.412;9.514;2022-11-14T01:46:00;71481.22;;;18.17
64600;BMP280;6553;48.412;9.514;2022-11-14T01:49:08;71487.28;;;18.18
64600;BMP280;6553;48.412;9.514;2022-11-14T01:52:00;71482.94;;;18.16
64600;BMP280;6553;48.412;9.514;2022-11-14T01:54:50;71482.81;;;18.19
64600;BMP280;6553;48.412;9.514;2022-11-14T01:57:42;71483.34;;;18.19
64600;BMP280;6553;48.412;9.514;2022-11-14T02:00:27;71488.47;;;18.16
64600;BMP280;6553;48.412;9.514;2022-11-14T02:03:14;71485.69;;;18.16
64600;BMP280;6553;48.412;9.514;2022-11-14T02:06:01;71480.16;;;18.16
64600;BMP280;6553;48.412;9.514;2022-11-14T02:08:48;71486.75;;;18.17
64600;BMP280;6553;48.412;9.514;2022-11-14T02:11:38;71481.88;;;18.15
64600;BMP280;6553;48.412;9.514;2022-11-14T02:14:23;71483.44;;;18.17
64600;BMP280;6553;48.412;9.514;2022-11-14T02:17:08;71479.63;;;18.16
64600;BMP280;6553;48.412;9.514;2022-11-14T02:22:46;71480.16;;;18.16
64600;BMP280;6553;48.412;9.514;2022-11-14T02:25:30;71481.75;;;18.18
64600;BMP280;6553;48.412;9.514;2022-11-14T02:28:14;71481.75;;;18.18
64600;BMP280;6553;48.412;9.514;2022-11-14T02:30:59;71485.69;;;18.16
64600;BMP280;6553;48.412;9.514;2022-11-14T02:33:44;71478.56;;;18.15
64600;BMP280;6553;48.412;9.514;2022-11-14T02:36:28;71482.94;;;18.16
64600;BMP280;6553;48.412;9.514;2022-11-14T02:39:12;71479.09;;;18.15
64600;BMP280;6553;48.412;9.514;2022-11-14T02:41:57;71480.78;;;18.14
64600;BMP280;6553;48.412;9.514;2022-11-14T02:44:42;71472.94;;;18.17
64600;BMP280;6553;48.412;9.514;2022-11-14T02:47:26;71485.69;;;18.16
64600;BMP280;6553;48.412;9.514;2022-11-14T02:50:10;71483.03;;;18.14
64600;BMP280;6553;48.412;9.514;2022-11-14T02:52:55;71484.63;;;18.15
64600;BMP280;6553;48.412;9.514;2022-11-14T02:55:39;71479.09;;;18.15
64600;BMP280;6553;48.412;9.514;2022-11-14T02:58:24;71481.22;;;18.17
64600;BMP280;6553;48.412;9.514;2022-11-14T03:01:09;71482.41;;;18.16
64600;BMP280;6553;48.412;9.514;2022-11-14T03:03:53;71481.88;;;18.15
64600;BMP280;6553;48.412;9.514;2022-11-14T03:06:38;71479.63;;;18.16
64600;BMP280;6553;48.412;9.514;2022-11-14T03:09:22;71478.56;;;18.15
64600;BMP280;6553;48.412;9.514;2022-11-14T03:12:06;71478.56;;;18.15
64600;BMP280;6553;48.412;9.514;2022-11-14T03:14:51;71486.75;;;18.17
64600;BMP280;6553;48.412;9.514;2022-11-14T03:17:35;71480.16;;;18.16
64600;BMP280;6553;48.412;9.514;2022-11-14T03:20:20;71479.09;;;18.15
64600;BMP280;6553;48.412;9.514;2022-11-14T03:23:04;71476.97;;;18.13
64600;BMP280;6553;48.412;9.514;2022-11-14T03:25:49;71478.56;;;18.15
64600;BMP280;6553;48.412;9.514;2022-11-14T03:28:34;71482.94;;;18.16
64600;BMP280;6553;48.412;9.514;2022-11-14T03:31:19;71484.00;;;18.17
64600;BMP280;6553;48.412;9.514;2022-11-14T03:34:03;71479.63;;;18.16
64600;BMP280;6553;48.412;9.514;2022-11-14T03:36:48;71485.25;;;18.13
64600;BMP280;6553;48.412;9.514;2022-11-14T03:39:32;71478.03;;;18.14
64600;BMP280;6553;48.412;9.514;2022-11-14T03:42:17;71480.28;;;18.14
64600;BMP280;6553;48.412;9.514;2022-11-14T03:45:01;71484.63;;;18.15
64600;BMP280;6553;48.412;9.514;2022-11-14T03:47:45;71482.94;;;18.16
64600;BMP280;6553;48.412;9.514;2022-11-14T03:50:29;71484.09;;;18.15
64600;BMP280;6553;48.412;9.514;2022-11-14T03:53:14;71477.50;;;18.14
64600;BMP280;6553;48.412;9.514;2022-11-14T03:55:58;71479.75;;;18.13
64600;BMP280;6553;48.412;9.514;2022-11-14T03:58:42;71485.69;;;18.16
64600;BMP280;6553;48.412;9.514;2022-11-14T04:01:26;71487.81;;;18.18
64600;BMP280;6553;48.412;9.514;2022-11-14T04:04:12;71482.94;;;18.16
64600;BMP280;6553;48.412;9.514;2022-11-14T04:06:56;71478.03;;;18.14
64600;BMP280;6553;48.412;9.514;2022-11-14T04:09:40;71480.78;;;18.14
64600;BMP280;6553;48.412;9.514;2022-11-14T04:12:25;71484.09;;;18.15
64600;BMP280;6553;48.412;9.514;2022-11-14T04:15:09;71479.09;;;18.15
64600;BMP280;6553;48.412;9.514;2022-11-14T04:17:53;71485.69;;;18.16
64600;BMP280;6553;48.412;9.514;2022-11-14T04:20:38;71487.38;;;18.15
64600;BMP280;6553;48.412;9.514;2022-11-14T04:23:22;71478.03;;;18.14
64600;BMP280;6553;48.412;9.514;2022-11-14T04:26:07;71478.03;;;18.14
64600;BMP280;6553;48.412;9.514;2022-11-14T04:28:51;71478.56;;;18.15
64600;BMP280;6553;48.412;9.514;2022-11-14T04:31:35;71479.63;;;18.16
64600;BMP280;6553;48.412;9.514;2022-11-14T04:34:20;71486.22;;;18.17
64600;BMP280;6553;48.412;9.514;2022-11-14T04:37:04;71480.78;;;18.14
64600;BMP280;6553;48.412;9.514;2022-11-14T04:39:48;71482.41;;;18.16
64600;BMP280;6553;48.412;9.514;2022-11-14T04:42:32;71478.69;;;18.12
64600;BMP280;6553;48.412;9.514;2022-11-14T04:45:16;71477.50;;;18.14
64600;BMP280;6553;48.412;9.514;2022-11-14T04:48:00;71485.69;;;18.16
64600;BMP280;6553;48.412;9.514;2022-11-14T04:50:45;71487.94;;;18.16
64600;BMP280;6553;48.412;9.514;2022-11-14T04:53:30;71482.94;;;18.16
64600;BMP280;6553;48.412;9.514;2022-11-14T04:56:14;71479.22;;;18.13
64600;BMP280;6553;48.412;9.514;2022-11-14T04:58:58;71478.56;;;18.15
64600;BMP280;6553;48.412;9.514;2022-11-14T05:01:43;71483.56;;;18.14
64600;BMP280;6553;48.412;9.514;2022-11-14T05:04:27;71481.31;;;18.15
64600;BMP280;6553;48.412;9.514;2022-11-14T05:07:13;71481.44;;;18.12
64600;BMP280;6553;48.412;9.514;2022-11-14T05:09:57;71486.31;;;18.14
64600;BMP280;6553;48.412;9.514;2022-11-14T05:12:41;71482.50;;;18.13
64600;BMP280;6553;48.412;9.514;2022-11-14T05:15:26;71484.09;;;18.15
64600;BMP280;6553;48.412;9.514;2022-11-14T05:18:10;71484.63;;;18.15
64600;BMP280;6553;48.412;9.514;2022-11-14T05:20:58;71478.03;;;18.14
64600;BMP280;6553;48.412;9.514;2022-11-14T05:23:42;71485.69;;;18.16
64600;BMP280;6553;48.412;9.514;2022-11-14T05:26:27;71477.09;;;18.11
64600;BMP280;6553;48.412;9.514;2022-11-14T05:29:11;71478.03;;;18.14
64600;BMP280;6553;48.412;9.514;2022-11-14T05:31:56;71480.16;;;18.16
64600;BMP280;6553;48.412;9.514;2022-11-14T05:34:41;71477.50;;;18.14
64600;BMP280;6553;48.412;9.514;2022-11-14T05:37:25;71483.56;;;18.14
64600;BMP280;6553;48.412;9.514;2022-11-14T05:40:10;71478.03;;;18.14
64600;BMP280;6553;48.412;9.514;2022-11-14T05:42:55;71480.78;;;18.14
64600;BMP280;6553;48.412;9.514;2022-11-14T05:45:39;71477.50;;;18.14
64600;BMP280;6553;48.412;9.514;2022-11-14T05:48:23;71485.16;;;18.16
64600;BMP280;6553;48.412;9.514;2022-11-14T05:51:11;71483.44;;;18.17
64600;BMP280;6553;48.412;9.514;2022-11-14T05:53:56;71486.22;;;18.17
64600;BMP280;6553;48.412;9.514;2022-11-14T05:56:40;71480.16;;;18.16
64600;BMP280;6553;48.412;9.514;2022-11-14T05:59:24;71483.56;;;18.14
64600;BMP280;6553;48.412;9.514;2022-11-14T06:02:09;71484.09;;;18.15
64600;BMP280;6553;48.412;9.514;2022-11-14T06:04:53;71479.09;;;18.15
64600;BMP280;6553;48.412;9.514;2022-11-14T06:07:37;71479.09;;;18.15
64600;BMP280;6553;48.412;9.514;2022-11-14T06:10:23;71483.56;;;18.14
64600;BMP280;6553;48.412;9.514;2022-11-14T06:13:08;71481.88;;;18.15
64600;BMP280;6553;48.412;9.514;2022-11-14T06:15:52;71481.88;;;18.15
64600;BMP280;6553;48.412;9.514;2022-11-14T06:18:37;71484.09;;;18.15
64600;BMP280;6553;48.412;9.514;2022-11-14T06:21:24;71484.00;;;18.17
64600;BMP280;6553;48.412;9.514;2022-11-14T06:24:08;71480.16;;;18.16
64600;BMP280;6553;48.412;9.514;2022-11-14T06:26:52;71480.69;;;18.17
64600;BMP280;6553;48.412;9.514;2022-11-14T06:29:36;71481.31;;;18.15
64600;BMP280;6553;48.412;9.514;2022-11-14T06:32:20;71483.56;;;18.14
64600;BMP280;6553;48.412;9.514;2022-11-14T06:35:05;71478.03;;;18.14
64600;BMP280;6553;48.412;9.514;2022-11-14T06:37:51;71484.63;;;18.15
64600;BMP280;6553;48.412;9.514;2022-11-14T06:40:36;71481.22;;;18.17
64600;BMP280;6553;48.412;9.514;2022-11-14T06:43:19;71481.88;;;18.15
64600;BMP280;6553;48.412;9.514;2022-11-14T06:46:06;71481.22;;;18.17
64600;BMP280;6553;48.412;9.514;2022-11-14T06:48:50;71479.09;;;18.15
64600;BMP280;6553;48.412;9.514;2022-11-14T06:51:35;71481.22;;;18.17
64600;BMP280;6553;48.412;9.514;2022-11-14T06:54:19;71482.94;;;18.16
64600;BMP280;6553;48.412;9.514;2022-11-14T06:57:04;71483.44;;;18.17
64600;BMP280;6553;48.412;9.514;2022-11-14T06:59:48;71482.41;;;18.16
64600;BMP280;6553;48.412;9.514;2022-11-14T07:02:32;71482.28;;;18.18
64600;BMP280;6553;48.412;9.514;2022-11-14T07:05:17;71479.63;;;18.16
64600;BMP280;6553;48.412;9.514;2022-11-14T07:08:01;71484.00;;;18.17
64600;BMP280;6553;48.412;9.514;2022-11-14T07:10:45;71481.75;;;18.18
64600;BMP280;6553;48.412;9.514;2022-11-14T07:13:30;71487.81;;;18.18
64600;BMP280;6553;48.412;9.514;2022-11-14T07:16:15;71480.16;;;18.16
64600;BMP280;6553;48.412;9.514;2022-11-14T07:19:02;71487.81;;;18.18
64600;BMP280;6553;48.412;9.514;2022-11-14T07:21:47;71502.69;;;18.19
64600;BMP280;6553;48.412;9.514;2022-11-14T07:24:31;71482.81;;;18.19
64600;BMP280;6553;48.412;9.514;2022-11-14T07:27:15;71485.56;;;18.19
64600;BMP280;6553;48.412;9.514;2022-11-14T07:29:59;71489.41;;;18.20
64600;BMP280;6553;48.412;9.514;2022-11-14T07:32:43;71482.28;;;18.18
64600;BMP280;6553;48.412;9.514;2022-11-14T07:35:27;71486.66;;;18.20
64600;BMP280;6553;48.412;9.514;2022-11-14T07:38:11;71492.16;;;18.20
64600;BMP280;6553;48.412;9.514;2022-11-14T07:41:05;71486.00;;;18.22
64600;BMP280;6553;48.412;9.514;2022-11-14T07:43:50;71487.16;;;18.20
64600;BMP280;6553;48.412;9.514;2022-11-14T07:46:34;71484.41;;;18.20
64600;BMP280;6553;48.412;9.514;2022-11-14T07:49:18;71483.88;;;18.20
64600;BMP280;6553;48.412;9.514;2022-11-14T07:52:03;71484.94;;;18.21
64600;BMP280;6553;48.412;9.514;2022-11-14T07:54:48;71489.94;;;18.20
64600;BMP280;6553;48.412;9.514;2022-11-14T07:57:32;71487.69;;;18.21
64600;BMP280;6553;48.412;9.514;2022-11-14T08:00:16;71484.94;;;18.21
64600;BMP280;6553;48.412;9.514;2022-11-14T08:03:01;71482.28;;;18.18
64600;BMP280;6553;48.412;9.514;2022-11-14T08:05:46;71482.28;;;18.18
64600;BMP280;6553;48.412;9.514;2022-11-14T08:08:30;71485.06;;;18.18
64600;BMP280;6553;48.412;9.514;2022-11-14T08:11:14;71484.41;;;18.20
64600;BMP280;6553;48.412;9.514;2022-11-14T08:13:59;71489.94;;;18.20
64600;BMP280;6553;48.412;9.514;2022-11-14T08:16:43;71484.94;;;18.21
64600;BMP280;6553;48.412;9.514;2022-11-14T08:19:27;71487.16;;;18.20
64600;BMP280;6553;48.412;9.514;2022-11-14T08:22:11;71490.47;;;18.21
64600;BMP280;6553;48.412;9.514;2022-11-14T08:24:56;71483.34;;;18.19
64600;BMP280;6553;48.412;9.514;2022-11-14T08:27:40;71487.69;;;18.21
64600;BMP280;6553;48.412;9.514;2022-11-14T08:30:25;71492.06;;;18.22
64600;BMP280;6553;48.412;9.514;2022-11-14T08:33:09;71489.94;;;18.20
64600;BMP280;6553;48.412;9.514;2022-11-14T08:35:54;71490.47;;;18.21
64600;BMP280;6553;48.412;9.514;2022-11-14T08:38:38;71488.22;;;18.21
64600;BMP280;6553;48.412;9.514;2022-11-14T08:41:22;71491.00;;;18.21
64600;BMP280;6553;48.412;9.514;2022-11-14T08:44:07;71483.88;;;18.20
64600;BMP280;6553;48.412;9.514;2022-11-14T08:46:51;71485.47;;;18.21
64600;BMP280;6553;48.412;9.514;2022-11-14T08:49:36;71484.41;;;18.20
64600;BMP280;6553;48.412;9.514;2022-11-14T08:52:20;71488.22;;;18.21
64600;BMP280;6553;48.412;9.514;2022-11-14T08:55:05;71493.22;;;18.21
64600;BMP280;6553;48.412;9.514;2022-11-14T08:57:52;71488.22;;;18.21
64600;BMP280;6553;48.412;9.514;2022-11-14T09:00:36;71483.88;;;18.20
64600;BMP280;6553;48.412;9.514;2022-11-14T09:03:21;71484.41;;;18.20
64600;BMP280;6553;48.412;9.514;2022-11-14T09:06:05;71486.09;;;18.19
64600;BMP280;6553;48.412;9.514;2022-11-14T09:08:50;71486.09;;;18.19
64600;BMP280;6553;48.412;9.514;2022-11-14T09:11:33;71481.75;;;18.18
64600;BMP280;6553;48.412;9.514;2022-11-14T09:14:18;71488.22;;;18.21
64600;BMP280;6553;48.412;9.514;2022-11-14T09:17:02;71488.78;;;18.22
64600;BMP280;6553;48.412;9.514;2022-11-14T09:19:46;71486.53;;;18.22
64600;BMP280;6553;48.412;9.514;2022-11-14T09:22:30;71491.00;;;18.21
64600;BMP280;6553;48.412;9.514;2022-11-14T09:25:14;71492.06;;;18.22
64600;BMP280;6553;48.412;9.514;2022-11-14T09:28:04;71493.75;;;18.21
64600;BMP280;6553;48.412;9.514;2022-11-14T09:30:49;71489.19;;;18.25
64600;BMP280;6553;48.412;9.514;2022-11-14T09:33:34;71489.19;;;18.25
64600;BMP280;6553;48.412;9.514;2022-11-14T09:36:19;71493.00;;;18.26
64600;BMP280;6553;48.412;9.514;2022-11-14T09:39:04;71489.31;;;18.22
64600;BMP280;6553;48.412;9.514;2022-11-14T09:45:14;71491.41;;;18.24
64600;BMP280;6553;48.412;9.514;2022-11-14T09:48:06;71489.19;;;18.25
64600;BMP280;6553;48.412;9.514;2022-11-14T09:51:27;71491.94;;;18.25
64600;BMP280;6553;48.412;9.514;2022-11-14T09:54:22;71491.31;;;18.27
64600;BMP280;6553;48.412;9.514;2022-11-14T09:57:17;71489.31;;;18.22
64600;BMP280;6553;48.412;9.514;2022-11-14T10:06:29;71495.66;;;18.28
64600;BMP280;6553;48.412;9.514;2022-11-14T10:23:11;71491.84;;;18.27
64600;BMP280;6553;48.412;9.514;2022-11-14T10:26:25;71492.38;;;18.28
64600;BMP280;6553;48.412;9.514;2022-11-14T10:30:02;71494.09;;;18.27
64600;BMP280;6553;48.412;9.514;2022-11-14T10:33:31;71493.56;;;18.26
64600;BMP280;6553;48.412;9.514;2022-11-14T10:36:27;71496.19;;;18.29
64600;BMP280;6553;48.412;9.514;2022-11-14T10:42:37;71492.88;;;18.28
64600;BMP280;6553;48.412;9.514;2022-11-14T10:45:51;71496.19;;;18.29
64600;BMP280;6553;48.412;9.514;2022-11-14T10:48:45;71496.19;;;18.29
64600;BMP280;6553;48.412;9.514;2022-11-14T10:51:45;71497.25;;;18.30
64600;BMP280;6553;48.412;9.514;2022-11-14T10:54:46;71492.38;;;18.28
64600;BMP280;6553;48.412;9.514;2022-11-14T10:57:31;71496.72;;;18.29
64600;BMP280;6553;48.412;9.514;2022-11-14T11:00:19;71502.69;;;18.32
64600;BMP280;6553;48.412;9.514;2022-11-14T11:03:06;71496.72;;;18.29
64600;BMP280;6553;48.412;9.514;2022-11-14T11:05:52;71497.16;;;18.32
64600;BMP280;6553;48.412;9.514;2022-11-14T11:08:43;71500.97;;;18.33
64600;BMP280;6553;48.412;9.514;2022-11-14T11:12:01;71499.25;;;18.34
64600;BMP280;6553;48.412;9.514;2022-11-14T11:15:29;71502.69;;;18.32
64600;BMP280;6553;48.412;9.514;2022-11-14T11:21:13;71501.41;;;18.36
64600;BMP280;6553;48.412;9.514;2022-11-14T11:23:58;71503.09;;;18.35
64600;BMP280;6553;48.412;9.514;2022-11-14T11:26:42;71501.94;;;18.37
64600;BMP280;6553;48.412;9.514;2022-11-14T11:29:26;71501.41;;;18.36
64600;BMP280;6553;48.412;9.514;2022-11-14T11:32:10;71505.72;;;18.38
64600;BMP280;6553;48.412;9.514;2022-11-14T11:34:56;71503.63;;;18.36
64600;BMP280;6553;48.412;9.514;2022-11-14T11:37:55;71506.81;;;18.39
64600;BMP280;6553;48.412;9.514;2022-11-14T11:40:48;71501.94;;;18.37
64600;BMP280;6553;48.412;9.514;2022-11-14T11:43:47;71506.81;;;18.39
64600;BMP280;6553;48.412;9.514;2022-11-14T11:46:50;71509.56;;;18.39
64600;BMP280;6553;48.412;9.514;2022-11-14T11:49:49;71508.50;;;18.38
64600;BMP280;6553;48.412;9.514;2022-11-14T11:56:11;71508.50;;;18.38
64600;BMP280;6553;48.412;9.514;2022-11-14T11:59:33;71502.97;;;18.38
64600;BMP280;6553;48.412;9.514;2022-11-14T12:02:25;71503.50;;;18.38
64600;BMP280;6553;48.412;9.514;2022-11-14T12:11:54;71506.94;;;18.36
64600;BMP280;6553;48.412;9.514;2022-11-14T12:27:57;71507.22;;;18.42
64600;BMP280;6553;48.412;9.514;2022-11-14T12:30:50;71512.66;;;18.44
64600;BMP280;6553;48.412;9.514;2022-11-14T12:33:44;71512.13;;;18.44
64600;BMP280;6553;48.412;9.514;2022-11-14T12:36:32;71515.41;;;18.44
64600;BMP280;6553;48.412;9.514;2022-11-14T12:39:28;71511.06;;;18.43
64600;BMP280;6553;48.412;9.514;2022-11-14T12:42:19;71506.69;;;18.41
64600;BMP280;6553;48.412;9.514;2022-11-14T12:48:32;71509.97;;;18.42
64600;BMP280;6553;48.412;9.514;2022-11-14T12:54:44;71509.97;;;18.42
64600;BMP280;6553;48.412;9.514;2022-11-14T13:08:36;71512.66;;;18.44
64600;BMP280;6553;48.412;9.514;2022-11-14T13:10:55;71514.34;;;18.43
64600;BMP280;6553;48.412;9.514;2022-11-14T13:14:00;71510.41;;;18.45
64600;BMP280;6553;48.412;9.514;2022-11-14T13:20:27;71511.59;;;18.43
64600;BMP280;6553;48.412;9.514;2022-11-14T13:32:51;71512.66;;;18.44
64600;BMP280;6553;48.412;9.514;2022-11-14T13:35:51;71511.06;;;18.43
64600;BMP280;6553;48.412;9.514;2022-11-14T13:42:25;71508.28;;;18.43
64600;BMP280;6553;48.412;9.514;2022-11-14T13:51:45;71507.75;;;18.42
64600;BMP280;6553;48.412;9.514;2022-11-14T13:54:30;71507.34;;;18.39
64600;BMP280;6553;48.412;9.514;2022-11-14T14:14:32;71510.94;;;18.45
64600;BMP280;6553;48.412;9.514;2022-11-14T14:17:26;71516.38;;;18.48
64600;BMP280;6553;48.412;9.514;2022-11-14T14:20:51;71510.94;;;18.45
64600;BMP280;6553;48.412;9.514;2022-11-14T14:23:46;71514.88;;;18.44
64600;BMP280;6553;48.412;9.514;2022-11-14T14:30:00;71514.34;;;18.43
64600;BMP280;6553;48.412;9.514;2022-11-14T14:33:21;71512.13;;;18.44
64600;BMP280;6553;48.412;9.514;2022-11-14T14:36:33;71508.81;;;18.43
64600;BMP280;6553;48.412;9.514;2022-11-14T14:39:26;71512.66;;;18.44
64600;BMP280;6553;48.412;9.514;2022-11-14T14:42:12;71509.38;;;18.44
64600;BMP280;6553;48.412;9.514;2022-11-14T14:44:57;71509.97;;;18.42
64600;BMP280;6553;48.412;9.514;2022-11-14T14:47:48;71507.75;;;18.42
64600;BMP280;6553;48.412;9.514;2022-11-14T14:50:41;71512.75;;;18.42
64600;BMP280;6553;48.412;9.514;2022-11-14T14:53:31;71511.06;;;18.43
64600;BMP280;6553;48.412;9.514;2022-11-14T14:56:23;71513.81;;;18.43
64600;BMP280;6553;48.412;9.514;2022-11-14T14:59:22;71510.63;;;18.40
64600;BMP280;6553;48.412;9.514;2022-11-14T15:02:16;71509.38;;;18.44
64600;BMP280;6553;48.412;9.514;2022-11-14T15:05:02;71509.38;;;18.44
64600;BMP280;6553;48.412;9.514;2022-11-14T15:07:46;71512.13;;;18.44
64600;BMP280;6553;48.412;9.514;2022-11-14T15:10:33;71509.97;;;18.42
64600;BMP280;6553;48.412;9.514;2022-11-14T15:13:18;71514.34;;;18.43
64600;BMP280;6553;48.412;9.514;2022-11-14T15:16:04;71512.13;;;18.44
64600;BMP280;6553;48.412;9.514;2022-11-14T15:18:51;71511.06;;;18.43
64600;BMP280;6553;48.412;9.514;2022-11-14T15:21:37;71519.03;;;18.50
64600;BMP280;6553;48.412;9.514;2022-11-14T15:24:22;71511.47;;;18.46
64600;BMP280;6553;48.412;9.514;2022-11-14T15:27:14;71517.13;;;18.43
64600;BMP280;6553;48.412;9.514;2022-11-14T15:30:04;71512.66;;;18.44
64600;BMP280;6553;48.412;9.514;2022-11-14T15:32:52;71511.06;;;18.43
64600;BMP280;6553;48.412;9.514;2022-11-14T15:35:39;71509.38;;;18.44
64600;BMP280;6553;48.412;9.514;2022-11-14T15:38:23;71513.81;;;18.43
64600;BMP280;6553;48.412;9.514;2022-11-14T15:41:19;71508.81;;;18.43
64600;BMP280;6553;48.412;9.514;2022-11-14T15:44:04;71507.75;;;18.42
64600;BMP280;6553;48.412;9.514;2022-11-14T15:46:49;71508.81;;;18.43
64600;BMP280;6553;48.412;9.514;2022-11-14T15:49:34;71507.22;;;18.42
64600;BMP280;6553;48.412;9.514;2022-11-14T15:52:29;71508.28;;;18.43
64600;BMP280;6553;48.412;9.514;2022-11-14T15:55:18;71512.22;;;18.41
64600;BMP280;6553;48.412;9.514;2022-11-14T15:58:03;71495.13;;;18.41
64600;BMP280;6553;48.412;9.514;2022-11-14T16:00:52;71510.63;;;18.40
64600;BMP280;6553;48.412;9.514;2022-11-14T16:03:38;71510.63;;;18.40
64600;BMP280;6553;48.412;9.514;2022-11-14T16:06:22;71516.16;;;18.40
64600;BMP280;6553;48.412;9.514;2022-11-14T16:09:14;71508.41;;;18.40
64600;BMP280;6553;48.412;9.514;2022-11-14T16:11:59;71509.56;;;18.39
64600;BMP280;6553;48.412;9.514;2022-11-14T16:14:43;71502.47;;;18.37
64600;BMP280;6553;48.412;9.514;2022-11-14T16:17:34;71510.63;;;18.40
64600;BMP280;6553;48.412;9.514;2022-11-14T16:20:27;71510.63;;;18.40
64600;BMP280;6553;48.412;9.514;2022-11-14T16:23:12;71505.72;;;18.38
64600;BMP280;6553;48.412;9.514;2022-11-14T16:25:56;71502.47;;;18.37
64600;BMP280;6553;48.412;9.514;2022-11-14T16:28:40;71505.72;;;18.38
64600;BMP280;6553;48.412;9.514;2022-11-14T16:31:24;71504.03;;;18.39
64600;BMP280;6553;48.412;9.514;2022-11-14T16:34:17;71504.03;;;18.39
64600;BMP280;6553;48.412;9.514;2022-11-14T16:37:02;71507.97;;;18.37
64600;BMP280;6553;48.412;9.514;2022-11-14T16:39:47;71503.50;;;18.38
64600;BMP280;6553;48.412;9.514;2022-11-14T16:42:31;71507.97;;;18.37
64600;BMP280;6553;48.412;9.514;2022-11-14T16:45:16;71508.50;;;18.38
64600;BMP280;6553;48.412;9.514;2022-11-14T16:48:03;71507.97;;;18.37
64600;BMP280;6553;48.412;9.514;2022-11-14T16:50:48;71512.34;;;18.39
64600;BMP280;6553;48.412;9.514;2022-11-14T16:53:32;71504.69;;;18.37
64600;BMP280;6553;48.412;9.514;2022-11-14T16:56:17;71507.97;;;18.37
64600;BMP280;6553;48.412;9.514;2022-11-14T16:59:00;71506.94;;;18.36
64600;BMP280;6553;48.412;9.514;2022-11-14T17:01:44;71511.91;;;18.36
64600;BMP280;6553;48.412;9.514;2022-11-14T17:04:31;71506.94;;;18.36
64600;BMP280;6553;48.412;9.514;2022-11-14T17:07:14;71505.84;;;18.35
64600;BMP280;6553;48.412;9.514;2022-11-14T17:09:59;71503.09;;;18.35
64600;BMP280;6553;48.412;9.514;2022-11-14T17:12:43;71502.97;;;18.38
64600;BMP280;6553;48.412;9.514;2022-11-14T17:15:27;71506.94;;;18.36
64600;BMP280;6553;48.412;9.514;2022-11-14T17:18:11;71506.94;;;18.36
64600;BMP280;6553;48.412;9.514;2022-11-14T17:20:56;71504.16;;;18.36
64600;BMP280;6553;48.412;9.514;2022-11-14T17:23:41;71503.09;;;18.35
64600;BMP280;6553;48.412;9.514;2022-11-14T17:26:25;71505.22;;;18.37
64600;BMP280;6553;48.412;9.514;2022-11-14T17:29:09;71504.78;;;18.34
64600;BMP280;6553;48.412;9.514;2022-11-14T17:31:55;71499.78;;;18.35
64600;BMP280;6553;48.412;9.514;2022-11-14T17:34:39;71502.03;;;18.34
64600;BMP280;6553;48.412;9.514;2022-11-14T17:37:23;71499.25;;;18.34
64600;BMP280;6553;48.412;9.514;2022-11-14T17:40:08;71502.03;;;18.34
64600;BMP280;6553;48.412;9.514;2022-11-14T17:42:53;71499.25;;;18.34
64600;BMP280;6553;48.412;9.514;2022-11-14T17:45:37;71505.84;;;18.35
64600;BMP280;6553;48.412;9.514;2022-11-14T17:48:22;71506.94;;;18.36
64600;BMP280;6553;48.412;9.514;2022-11-14T17:51:11;71507.47;;;18.37
64600;BMP280;6553;48.412;9.514;2022-11-14T17:53:55;71498.75;;;18.34
64600;BMP280;6553;48.412;9.514;2022-11-14T17:56:39;71498.75;;;18.34
64600;BMP280;6553;48.412;9.514;2022-11-14T17:59:24;71500.97;;;18.33
64600;BMP280;6553;48.412;9.514;2022-11-14T18:02:13;71501.41;;;18.36
64600;BMP280;6553;48.412;9.514;2022-11-14T18:04:57;71505.84;;;18.35
64600;BMP280;6553;48.412;9.514;2022-11-14T18:07:41;71499.25;;;18.34
64600;BMP280;6553;48.412;9.514;2022-11-14T18:10:26;71504.78;;;18.34
64600;BMP280;6553;48.412;9.514;2022-11-14T18:13:11;71500.34;;;18.35
64600;BMP280;6553;48.412;9.514;2022-11-14T18:16:09;71499.78;;;18.35